Time;durP1;ratioP1;P1;durP2;ratioP2;P2;SDS_P1;SDS_P2;PMS_P1;PMS_P2;Temp;Humidity;BMP_temperature;BMP_pressure;BME280_temperature;BME280_humidity;BME280_pressure;Samples;Min_cycle;Max_cycle;Signal;HPM_P1;HPM_P2
2022/05/27 00:00:52;;;;;;;4.70;1.83;;;;;;;13.25;76.51;96223.66;5014638;28;20182;-79
2022/05/27 00:03:17;;;;;;;3.40;1.70;;;;;;;13.25;76.72;96223.66;5014962;28;20213;-78
2022/05/27 00:05:43;;;;;;;5.40;1.80;;;;;;;13.23;76.52;96215.13;4997742;28;20190;-77
2022/05/27 00:08:10;;;;;;;4.30;2.00;;;;;;;13.21;77.31;96221.47;5014795;28;20237;-79
2022/05/27 00:10:35;;;;;;;4.17;1.90;;;;;;;13.27;77.00;96213.88;4998662;28;20179;-79
2022/05/27 00:13:01;;;;;;;3.00;1.77;;;;;;;13.21;77.72;96216.25;4978259;28;20258;-77
2022/05/27 00:15:26;;;;;;;4.43;2.10;;;;;;;13.15;78.39;96199.38;4977912;28;20210;-78
2022/05/27 00:17:52;;;;;;;2.97;2.00;;;;;;;13.17;77.77;96205.28;4994513;28;20199;-79
2022/05/27 00:20:17;;;;;;;3.70;1.90;;;;;;;13.13;78.52;96203.91;5014565;28;20179;-77
2022/05/27 00:22:42;;;;;;;5.23;2.20;;;;;;;13.13;78.80;96198.69;5002042;28;20187;-78
2022/05/27 00:25:08;;;;;;;2.83;1.97;;;;;;;13.11;78.99;96205.84;5000637;28;20183;-79
2022/05/27 00:27:33;;;;;;;3.07;2.17;;;;;;;13.11;78.98;96203.25;4994394;28;20242;-78
2022/05/27 00:29:59;;;;;;;2.83;2.13;;;;;;;13.16;78.72;96195.78;5003202;28;20274;-79
2022/05/27 00:32:24;;;;;;;5.10;2.33;;;;;;;13.04;79.67;96199.59;5014179;28;20178;-79
2022/05/27 00:34:49;;;;;;;3.57;2.60;;;;;;;13.05;79.69;96196.00;5013729;28;20204;-79
2022/05/27 00:37:15;;;;;;;2.63;2.03;;;;;;;13.02;80.09;96196.31;5013908;28;20257;-79
2022/05/27 00:39:40;;;;;;;3.07;2.17;;;;;;;12.96;80.40;96194.28;5013966;28;20174;-78
2022/05/27 00:42:07;;;;;;;5.10;3.07;;;;;;;13.04;80.39;96194.38;4997489;28;20669;-78
2022/05/27 00:44:32;;;;;;;3.10;2.30;;;;;;;12.98;80.83;96184.50;5029775;28;20174;-78
2022/05/27 00:47:10;;;;;;;5.43;2.30;;;;;;;13.11;80.13;96184.19;5030990;28;20684;-78
2022/05/27 00:49:43;;;;;;;4.70;2.03;;;;;;;12.92;81.30;96178.13;5046854;28;20504;-79
2022/05/27 00:52:11;;;;;;;5.23;1.93;;;;;;;12.94;81.38;96180.56;5014282;28;20167;-79
2022/05/27 00:54:37;;;;;;;4.47;2.47;;;;;;;13.01;81.27;96184.25;5029890;28;20178;-78
2022/05/27 00:57:18;;;;;;;3.63;2.10;;;;;;;13.04;80.95;96173.50;5013731;28;20606;-78
2022/05/27 00:59:53;;;;;;;3.27;2.23;;;;;;;13.03;80.97;96171.88;5046917;28;20202;-79
2022/05/27 01:02:18;;;;;;;4.87;2.30;;;;;;;13.04;81.55;96171.72;5013513;28;20272;-79
2022/05/27 01:04:45;;;;;;;2.53;2.17;;;;;;;12.97;81.19;96175.88;5013359;28;20265;-79
2022/05/27 01:07:10;;;;;;;3.50;2.13;;;;;;;12.97;81.69;96178.47;4996669;28;20210;-78
2022/05/27 01:09:37;;;;;;;3.70;2.20;;;;;;;12.98;81.69;96174.09;5031370;28;20262;-79
2022/05/27 01:12:24;;;;;;;2.87;2.13;;;;;;;12.98;81.58;96174.91;4997093;28;20623;-79
2022/05/27 01:15:25;;;;;;;2.73;2.07;;;;;;;13.03;81.60;96175.28;5012687;28;20186;-78
2022/05/27 01:18:03;;;;;;;3.67;2.20;;;;;;;12.94;83.00;96163.16;4999261;28;20277;-78
2022/05/27 01:20:40;;;;;;;3.53;2.27;;;;;;;12.99;82.86;96165.31;5030845;28;20174;-78
2022/05/27 01:23:11;;;;;;;2.43;2.10;;;;;;;13.05;82.35;96162.94;5012303;28;20174;-79
2022/05/27 01:26:26;;;;;;;3.23;2.10;;;;;;;12.98;82.74;96161.06;5012644;28;20565;-77
2022/05/27 01:29:19;;;;;;;4.33;2.20;;;;;;;12.97;82.73;96162.84;4963738;28;20206;-79
2022/05/27 01:31:56;;;;;;;3.17;1.93;;;;;;;12.96;83.07;96168.22;5010027;28;20213;-78
2022/05/27 01:34:29;;;;;;;3.53;1.87;;;;;;;12.95;82.84;96163.97;5009489;28;20182;-78
2022/05/27 01:37:18;;;;;;;2.97;2.20;;;;;;;12.90;83.06;96158.38;5011175;28;20196;-78
2022/05/27 01:39:48;;;;;;;4.30;2.00;;;;;;;12.86;83.24;96162.25;5011551;28;20167;-79
2022/05/27 01:42:19;;;;;;;5.20;2.10;;;;;;;12.84;83.97;96151.97;5026610;28;20198;-79
2022/05/27 01:44:58;;;;;;;3.83;2.10;;;;;;;12.87;83.58;96156.06;4976944;28;20732;-79
2022/05/27 01:47:35;;;;;;;3.10;2.10;;;;;;;12.83;83.71;96159.94;4993473;28;20199;-79
2022/05/27 01:50:17;;;;;;;2.37;2.13;;;;;;;12.76;84.03;96155.28;4993645;28;20267;-77
2022/05/27 01:52:53;;;;;;;4.23;1.97;;;;;;;12.78;83.63;96157.75;4993016;28;20246;-79
2022/05/27 01:55:24;;;;;;;2.07;1.83;;;;;;;12.72;83.85;96158.31;4992477;28;20209;-78
2022/05/27 01:58:07;;;;;;;3.50;2.20;;;;;;;12.70;84.14;96153.25;4993538;28;20199;-77
2022/05/27 02:00:34;;;;;;;2.60;2.40;;;;;;;12.66;84.40;96138.91;4993097;28;20191;-78
2022/05/27 02:03:06;;;;;;;3.53;2.10;;;;;;;12.62;84.65;96142.75;4993326;28;20406;-78
2022/05/27 02:06:00;;;;;;;2.83;2.23;;;;;;;12.58;85.16;96144.03;4992669;28;20206;-79
2022/05/27 02:08:34;;;;;;;4.77;2.90;;;;;;;12.55;85.41;96154.75;4993076;28;20194;-79
2022/05/27 02:11:04;;;;;;;2.40;1.97;;;;;;;12.50;86.07;96153.53;4993376;28;20183;-79
2022/05/27 02:13:35;;;;;;;4.30;2.70;;;;;;;12.50;86.49;96149.13;4993459;28;20187;-79
2022/05/27 02:16:02;;;;;;;5.70;2.70;;;;;;;12.48;86.36;96140.66;4992994;28;20251;-79
2022/05/27 02:18:34;;;;;;;3.60;2.00;;;;;;;12.49;86.38;96142.28;4992916;28;20180;-78
2022/05/27 02:21:02;;;;;;;4.67;2.90;;;;;;;12.44;86.68;96134.88;4993169;28;20175;-78
2022/05/27 02:23:31;;;;;;;4.30;2.70;;;;;;;12.48;86.56;96136.25;4992146;28;20180;-78
2022/05/27 02:25:57;;;;;;;3.50;2.80;;;;;;;12.50;86.81;96136.09;4992453;28;20231;-78
2022/05/27 02:28:39;;;;;;;4.63;3.03;;;;;;;12.53;86.95;96130.59;4976536;28;20289;-78
2022/05/27 02:31:08;;;;;;;3.80;2.70;;;;;;;12.43;87.54;96128.03;4976716;28;20182;-78
2022/05/27 02:36:27;;;;;;;4.93;2.53;;;;;;;12.43;87.30;96128.03;4998081;28;20629;-79
2022/05/27 02:38:52;;;;;;;3.50;2.57;;;;;;;12.39;87.12;96120.69;4996222;28;20232;-78
2022/05/27 02:41:30;;;;;;;7.20;3.00;;;;;;;12.34;87.89;96120.28;4996184;28;20274;-78
2022/05/27 02:44:07;;;;;;;4.03;2.63;;;;;;;12.30;88.07;96117.16;5004155;28;20187;-77
2022/05/27 02:46:41;;;;;;;5.63;3.20;;;;;;;12.25;88.41;96123.75;4981810;28;20218;-78
2022/05/27 02:49:23;;;;;;;7.43;3.37;;;;;;;12.23;88.76;96112.66;5013795;28;20574;-78
2022/05/27 02:52:11;;;;;;;4.07;3.00;;;;;;;12.19;88.27;96127.72;4995957;28;20217;-78
2022/05/27 02:54:50;;;;;;;4.87;3.43;;;;;;;12.18;88.66;96124.31;4995710;28;20578;-78
2022/05/27 02:57:27;;;;;;;5.60;3.37;;;;;;;12.23;88.64;96121.28;4996070;28;20222;-78
2022/05/27 02:59:55;;;;;;;3.80;3.03;;;;;;;12.16;89.35;96121.03;4996133;28;20179;-78
2022/05/27 03:02:20;;;;;;;5.77;3.43;;;;;;;12.19;89.30;96120.78;4979469;28;20565;-78
2022/05/27 03:04:50;;;;;;;6.53;3.87;;;;;;;12.14;89.55;96114.34;5012890;28;20179;-79
2022/05/27 03:07:34;;;;;;;4.93;3.20;;;;;;;12.16;89.46;96123.63;4995938;28;20585;-79
2022/05/27 03:10:27;;;;;;;5.03;3.40;;;;;;;12.18;89.21;96129.50;4995865;28;20199;-79
2022/05/27 03:13:05;;;;;;;6.70;3.70;;;;;;;12.09;90.08;96117.34;4995735;28;20501;-79
2022/05/27 03:16:00;;;;;;;4.33;3.67;;;;;;;12.06;90.00;96115.06;4995051;28;20527;-79
2022/05/27 03:18:52;;;;;;;5.43;3.93;;;;;;;12.04;90.25;96122.19;4995959;28;20232;-79
2022/05/27 03:21:23;;;;;;;6.37;4.13;;;;;;;12.10;90.05;96116.44;4995545;28;20187;-78
2022/05/27 03:23:56;;;;;;;4.20;3.80;;;;;;;12.14;89.51;96116.94;4994452;28;20620;-79
2022/05/27 03:26:27;;;;;;;4.70;4.17;;;;;;;12.00;90.88;96115.59;5012728;28;20211;-79
2022/05/27 03:28:52;;;;;;;5.77;4.30;;;;;;;12.11;90.17;96114.63;5013274;28;20207;-78
2022/05/27 03:31:30;;;;;;;5.63;4.00;;;;;;;12.16;90.21;96117.63;4995215;28;20274;-78
2022/05/27 03:34:09;;;;;;;7.67;5.20;;;;;;;12.21;90.51;96119.81;4995181;28;20191;-78
2022/05/27 03:36:56;;;;;;;5.97;4.33;;;;;;;12.35;89.72;96111.50;4995883;28;20199;-79
2022/05/27 03:39:26;;;;;;;5.77;3.83;;;;;;;12.40;89.54;96125.75;4995328;28;20635;-79
2022/05/27 03:42:06;;;;;;;5.53;4.03;;;;;;;12.49;89.77;96121.44;4995900;28;20191;-79
2022/05/27 03:44:31;;;;;;;6.30;4.37;;;;;;;12.60;89.38;96117.81;5027513;28;20206;-79
2022/05/27 03:46:58;;;;;;;6.03;4.20;;;;;;;12.64;89.00;96119.19;4994535;28;20739;-78
2022/05/27 03:49:23;;;;;;;6.00;4.13;;;;;;;12.69;89.01;96116.94;5028122;28;20183;-78
2022/05/27 03:51:52;;;;;;;5.43;4.07;;;;;;;12.73;88.64;96121.72;4995133;28;20197;-79
2022/05/27 03:54:18;;;;;;;5.30;3.80;;;;;;;12.76;88.88;96126.63;4994657;28;20221;-79
2022/05/27 03:56:43;;;;;;;5.87;4.47;;;;;;;13.17;87.01;96124.44;4995010;28;20218;-79
2022/05/27 03:59:13;;;;;;;5.67;3.87;;;;;;;13.77;83.62;96123.75;5028228;28;20306;-79
2022/05/27 04:01:41;;;;;;;4.97;4.43;;;;;;;14.03;81.77;96123.75;4995060;28;20182;-79
2022/05/27 04:04:08;;;;;;;8.50;4.57;;;;;;;14.53;78.78;96121.25;4994623;28;20183;-78
2022/05/27 04:06:33;;;;;;;6.80;4.20;;;;;;;14.66;78.45;96124.22;4995086;28;20735;-77
2022/05/27 04:08:59;;;;;;;6.47;4.10;;;;;;;14.62;77.90;96120.31;4995129;28;20183;-79
2022/05/27 04:11:25;;;;;;;5.93;4.10;;;;;;;14.36;78.88;96133.41;4995028;28;20186;-79
2022/05/27 04:13:51;;;;;;;4.80;3.93;;;;;;;14.10;80.79;96122.19;5027315;28;20218;-79
2022/05/27 04:16:16;;;;;;;5.60;4.00;;;;;;;14.10;80.47;96114.34;5027421;28;20286;-79
2022/05/27 04:18:42;;;;;;;5.97;3.83;;;;;;;14.12;80.38;96118.44;4994533;28;20633;-78
2022/05/27 04:21:07;;;;;;;6.73;3.80;;;;;;;14.12;80.42;96117.59;4994808;28;20265;-78
2022/05/27 04:23:33;;;;;;;6.17;3.93;;;;;;;14.15;80.53;96125.16;4977898;28;20186;-79
2022/05/27 04:25:58;;;;;;;5.50;3.40;;;;;;;14.28;80.37;96120.31;5004579;28;20191;-78
2022/05/27 04:28:24;;;;;;;5.80;4.47;;;;;;;14.31;80.07;96122.63;5023398;28;20179;-78
2022/05/27 04:30:49;;;;;;;5.87;3.73;;;;;;;14.47;79.14;96131.53;5031498;28;20194;-76
2022/05/27 04:33:14;;;;;;;6.40;4.43;;;;;;;14.41;79.80;96125.13;5018962;28;20167;-77
2022/05/27 04:35:40;;;;;;;5.60;3.90;;;;;;;14.48;78.76;96122.69;5009891;28;20193;-77
2022/05/27 04:38:06;;;;;;;3.90;3.23;;;;;;;14.43;78.92;96121.34;4979737;28;20200;-78
2022/05/27 04:40:31;;;;;;;8.77;3.70;;;;;;;14.54;78.51;96127.31;5013018;28;20277;-78
2022/05/27 04:42:57;;;;;;;8.50;4.20;;;;;;;14.41;78.98;96128.53;4994887;28;20265;-77
2022/05/27 04:45:22;;;;;;;6.27;3.97;;;;;;;14.29;79.40;96124.56;4993737;28;20187;-78
2022/05/27 04:47:48;;;;;;;6.00;3.37;;;;;;;14.34;79.37;96130.13;4993926;28;20219;-78
2022/05/27 04:50:13;;;;;;;4.67;3.33;;;;;;;14.19;80.06;96126.47;4978224;28;20183;-79
2022/05/27 04:52:39;;;;;;;5.23;3.60;;;;;;;14.21;80.03;96127.13;4993983;28;20190;-78
2022/05/27 04:55:10;;;;;;;4.60;3.50;;;;;;;14.05;80.86;96137.50;4993504;28;20241;-79
2022/05/27 04:57:39;;;;;;;6.33;3.87;;;;;;;13.97;81.34;96135.66;4993910;28;20211;-78
2022/05/27 05:00:12;;;;;;;3.77;3.20;;;;;;;13.94;81.35;96135.94;4992789;28;20618;-78
2022/05/27 05:02:38;;;;;;;6.47;3.80;;;;;;;13.91;81.58;96138.88;5011479;28;20550;-78
2022/05/27 05:05:04;;;;;;;6.43;3.90;;;;;;;13.84;82.42;96138.66;5026005;28;20183;-78
2022/05/27 05:07:29;;;;;;;6.77;3.70;;;;;;;13.76;82.21;96138.63;4976984;28;20207;-78
2022/05/27 05:09:54;;;;;;;7.03;4.10;;;;;;;13.76;82.33;96136.00;4993702;28;20618;-78
2022/05/27 05:12:22;;;;;;;6.03;3.90;;;;;;;13.69;82.81;96134.16;5026170;28;20267;-78
2022/05/27 05:14:48;;;;;;;5.70;4.17;;;;;;;13.64;82.85;96145.06;4993132;28;20210;-77
2022/05/27 05:17:13;;;;;;;7.30;4.00;;;;;;;13.79;82.53;96137.50;4993451;28;20234;-77
2022/05/27 05:19:39;;;;;;;5.13;4.00;;;;;;;13.59;83.05;96139.47;4993210;28;20187;-78
2022/05/27 05:22:04;;;;;;;7.47;4.17;;;;;;;13.52;83.36;96146.28;4993652;28;20186;-79
2022/05/27 05:24:29;;;;;;;8.23;4.40;;;;;;;13.51;83.39;96160.28;4992116;28;20187;-77
2022/05/27 05:26:55;;;;;;;7.97;3.93;;;;;;;13.52;83.57;96146.28;4993216;28;21158;-79
2022/05/27 05:29:20;;;;;;;6.73;3.63;;;;;;;13.52;84.15;96151.50;4993256;28;20194;-78
2022/05/27 05:31:45;;;;;;;5.40;3.33;;;;;;;13.51;84.03;96155.88;5010934;28;20209;-79
2022/05/27 05:34:11;;;;;;;5.27;3.80;;;;;;;13.47;84.05;96164.16;5009295;28;20687;-79
2022/05/27 05:36:36;;;;;;;4.90;3.50;;;;;;;13.52;83.97;96167.16;4993406;28;20195;-78
2022/05/27 05:39:03;;;;;;;8.20;3.77;;;;;;;13.50;83.46;96159.44;4993393;28;20202;-78
2022/05/27 05:41:29;;;;;;;6.30;4.10;;;;;;;13.40;84.53;96160.50;5025900;28;20270;-78
2022/05/27 05:43:55;;;;;;;4.47;3.47;;;;;;;13.49;84.02;96157.81;5010362;28;20186;-78
2022/05/27 05:46:21;;;;;;;4.70;4.00;;;;;;;13.47;84.27;96148.50;5025844;28;20215;-79
2022/05/27 05:48:46;;;;;;;7.20;4.27;;;;;;;13.33;84.93;96153.28;4993383;28;20661;-78
2022/05/27 05:51:11;;;;;;;7.20;3.63;;;;;;;13.48;83.94;96147.53;4993230;28;20190;-78
2022/05/27 05:53:37;;;;;;;3.77;3.37;;;;;;;13.39;84.79;96161.47;4992960;28;20198;-79
2022/05/27 05:56:02;;;;;;;4.90;3.73;;;;;;;13.56;83.74;96152.81;4992747;28;20187;-79
2022/05/27 05:58:27;;;;;;;6.63;3.97;;;;;;;13.29;85.05;96157.16;4993491;28;20268;-79
2022/05/27 06:00:52;;;;;;;5.60;4.30;;;;;;;13.46;84.47;96162.53;5026124;28;20179;-78
2022/05/27 06:03:18;;;;;;;4.60;3.83;;;;;;;13.01;86.32;96163.38;5026266;28;20891;-77
2022/05/27 06:05:43;;;;;;;5.83;3.47;;;;;;;13.35;85.03;96170.59;4992738;28;20621;-78
2022/05/27 06:08:10;;;;;;;3.87;3.50;;;;;;;13.29;85.46;96170.22;4992896;28;20282;-78
2022/05/27 06:10:35;;;;;;;7.23;3.97;;;;;;;13.22;85.29;96166.53;5029221;28;20250;-77
2022/05/27 06:13:01;;;;;;;4.30;3.83;;;;;;;13.23;85.39;96168.19;5004492;28;20618;-77
2022/05/27 06:15:26;;;;;;;7.87;4.33;;;;;;;13.33;84.69;96165.50;4996971;28;20211;-78
2022/05/27 06:17:51;;;;;;;5.60;3.43;;;;;;;13.35;84.08;96170.59;5014253;28;20226;-77
2022/05/27 06:20:17;;;;;;;7.23;4.50;;;;;;;13.25;84.68;96166.28;4980795;28;20776;-78
2022/05/27 06:22:42;;;;;;;4.50;4.00;;;;;;;13.35;84.48;96170.59;5013432;28;20186;-78
2022/05/27 06:25:08;;;;;;;3.93;3.53;;;;;;;13.36;84.37;96159.19;4996063;28;20178;-78
2022/05/27 06:27:33;;;;;;;7.60;3.87;;;;;;;13.39;83.95;96157.09;4980248;28;20218;-78
2022/05/27 06:35:23;;;;;;;5.87;3.60;;;;;;;13.39;84.58;96182.34;4998739;28;20191;-78
2022/05/27 06:37:49;;;;;;;5.80;3.30;;;;;;;13.51;83.61;96184.56;4996475;28;20187;-79
2022/05/27 06:40:16;;;;;;;7.47;3.83;;;;;;;13.35;84.54;96184.44;4996563;28;20593;-77
2022/05/27 06:42:41;;;;;;;7.20;3.70;;;;;;;13.39;84.13;96177.94;5029173;28;20176;-78
2022/05/27 06:45:09;;;;;;;5.17;3.57;;;;;;;13.38;83.35;96181.53;4995725;28;20185;-78
2022/05/27 06:47:34;;;;;;;4.80;3.50;;;;;;;13.42;83.52;96182.03;5028773;28;20215;-78
2022/05/27 06:50:00;;;;;;;5.60;3.47;;;;;;;13.42;84.17;96187.25;4996302;28;20189;-78
2022/05/27 06:52:25;;;;;;;5.43;3.57;;;;;;;13.55;83.16;96183.31;4995960;28;20195;-77
2022/05/27 06:54:51;;;;;;;5.13;3.13;;;;;;;13.55;82.76;96182.50;4995421;28;20215;-78
2022/05/27 06:57:16;;;;;;;6.27;3.33;;;;;;;13.58;83.19;96192.63;5013475;28;20195;-77
2022/05/27 06:59:42;;;;;;;6.17;3.43;;;;;;;13.57;83.25;96191.00;4996060;28;20671;-79
2022/05/27 07:02:07;;;;;;;4.73;3.27;;;;;;;13.50;83.41;96185.53;4995994;28;20190;-78
2022/05/27 07:04:33;;;;;;;5.77;3.37;;;;;;;13.43;84.16;96194.13;5012978;28;20179;-78
2022/05/27 07:06:58;;;;;;;3.47;3.03;;;;;;;13.38;84.10;96185.94;4995975;28;20215;-78
2022/05/27 07:09:25;;;;;;;5.10;3.20;;;;;;;13.40;83.79;96186.59;4996102;28;20191;-78
2022/05/27 07:11:53;;;;;;;5.00;2.90;;;;;;;13.36;84.26;96180.06;5028323;28;20201;-78
2022/05/27 07:14:19;;;;;;;7.07;3.20;;;;;;;13.37;84.58;96186.91;5028117;28;20217;-77
2022/05/27 07:16:46;;;;;;;5.50;3.40;;;;;;;13.25;84.98;96186.28;4995504;28;20219;-78
2022/05/27 07:19:11;;;;;;;4.37;3.20;;;;;;;13.42;84.39;96179.44;4995657;28;20220;-77
2022/05/27 07:21:43;;;;;;;6.57;3.63;;;;;;;13.28;84.97;96186.81;4994710;28;20720;-79
2022/05/27 07:24:10;;;;;;;4.40;3.57;;;;;;;13.40;84.50;96181.38;5026529;28;20221;-77
2022/05/27 07:26:37;;;;;;;6.60;3.70;;;;;;;13.49;83.72;96183.09;5028056;28;20218;-77
2022/05/27 07:29:03;;;;;;;5.17;3.73;;;;;;;13.32;84.74;96180.34;5012881;28;20175;-78
2022/05/27 07:31:29;;;;;;;4.10;3.20;;;;;;;13.48;84.25;96191.88;4995545;28;20191;-78
2022/05/27 07:33:55;;;;;;;5.80;3.60;;;;;;;13.49;84.32;96183.09;4994869;28;20238;-78
2022/05/27 07:36:20;;;;;;;4.60;3.23;;;;;;;13.57;83.38;96180.56;4995319;28;20204;-77
2022/05/27 07:38:47;;;;;;;4.37;3.40;;;;;;;13.52;83.93;96186.25;4995597;28;20237;-78
2022/05/27 07:41:12;;;;;;;7.20;3.90;;;;;;;13.56;83.14;96179.72;5012672;28;20203;-77
2022/05/27 07:43:38;;;;;;;5.50;3.33;;;;;;;13.51;83.71;96188.97;5012607;28;20213;-78
2022/05/27 07:46:03;;;;;;;5.60;3.40;;;;;;;13.46;82.85;96186.81;5012377;28;20183;-78
2022/05/27 07:48:29;;;;;;;3.73;3.20;;;;;;;13.49;83.35;96185.69;4995221;28;20183;-79
2022/05/27 07:50:54;;;;;;;4.63;3.40;;;;;;;13.62;82.36;96183.53;4995169;28;20185;-77
2022/05/27 07:53:20;;;;;;;3.23;2.80;;;;;;;13.64;82.33;96186.81;4979145;28;20183;-78
2022/05/27 07:55:45;;;;;;;6.87;3.97;;;;;;;13.47;83.34;96192.88;4994610;28;20553;-78
2022/05/27 07:58:10;;;;;;;4.07;3.37;;;;;;;13.69;82.59;96189.78;4995036;28;20691;-79
2022/05/27 08:00:37;;;;;;;7.70;3.67;;;;;;;13.67;82.61;96196.94;5012415;28;20939;-79
2022/05/27 08:03:03;;;;;;;3.97;3.33;;;;;;;13.79;81.76;96180.09;5027441;28;20183;-78
2022/05/27 08:05:29;;;;;;;4.47;3.03;;;;;;;13.76;81.87;96190.81;4994289;28;20197;-79
2022/05/27 08:07:57;;;;;;;4.77;3.30;;;;;;;13.70;81.64;96185.41;5027448;28;20207;-78
2022/05/27 08:10:24;;;;;;;4.73;3.30;;;;;;;13.75;80.55;96191.78;4995014;28;20183;-78
2022/05/27 08:12:50;;;;;;;7.07;4.20;;;;;;;13.78;80.94;96188.03;4995023;28;20175;-79
2022/05/27 08:15:15;;;;;;;4.93;3.17;;;;;;;13.85;81.11;96200.34;4994231;28;20600;-79
2022/05/27 08:17:41;;;;;;;6.50;3.60;;;;;;;13.73;81.49;96196.34;4994327;28;20692;-78
2022/05/27 08:20:09;;;;;;;6.20;3.37;;;;;;;13.70;81.50;96204.50;4994903;28;20179;-78
2022/05/27 08:22:34;;;;;;;4.77;3.30;;;;;;;13.65;81.32;96211.94;5011860;28;20302;-78
2022/05/27 08:25:00;;;;;;;5.53;3.70;;;;;;;13.78;80.39;96199.34;4977771;28;20190;-79
2022/05/27 08:27:25;;;;;;;4.60;3.30;;;;;;;13.93;79.98;96211.81;4994587;28;20810;-79
2022/05/27 08:29:50;;;;;;;5.23;3.83;;;;;;;13.93;78.53;96201.38;4994435;28;20187;-79
2022/05/27 08:32:16;;;;;;;4.47;3.63;;;;;;;14.19;76.98;96207.44;4994350;28;20222;-78
2022/05/27 08:40:46;;;;;;;3.80;3.10;;;;;;;14.89;74.02;96205.53;5005368;28;20213;-79
2022/05/27 08:43:20;;;;;;;8.47;5.10;;;;;;;15.23;72.45;96205.47;4998525;28;20225;-79
2022/05/27 08:46:15;;;;;;;6.27;3.67;;;;;;;15.28;71.65;96210.22;4977557;28;20236;-79
2022/05/27 08:48:42;;;;;;;5.50;3.20;;;;;;;15.46;70.67;96210.06;5010225;28;20245;-78
2022/05/27 08:51:14;;;;;;;4.30;3.20;;;;;;;15.50;71.06;96214.03;4994360;28;20194;-79
2022/05/27 08:53:53;;;;;;;3.40;3.10;;;;;;;15.56;70.57;96208.97;4993849;28;20187;-78
2022/05/27 08:59:39;;;;;;;3.00;2.67;;;;;;;16.09;68.84;96199.00;4996875;28;20218;-79
2022/05/27 09:02:23;;;;;;;5.33;2.60;;;;;;;16.55;67.14;96210.53;5011696;28;20179;-79
2022/05/27 09:05:14;;;;;;;4.03;2.63;;;;;;;16.62;65.43;96211.50;5011202;28;20262;-79
2022/05/27 09:07:55;;;;;;;3.17;2.73;;;;;;;16.63;64.41;96194.78;4994697;28;20219;-78
2022/05/27 09:10:46;;;;;;;3.38;2.20;;;;;;;16.90;64.66;96198.81;5026408;28;20688;-79
2022/05/27 09:13:19;;;;;;;4.18;2.03;;;;;;;16.86;64.35;96197.50;4993808;28;20176;-79
2022/05/27 09:16:22;;;;;;;3.85;2.22;;;;;;;17.13;63.46;96203.28;4993107;28;20232;-79
2022/05/27 09:19:13;;;;;;;2.92;2.38;;;;;;;16.88;62.32;96192.91;5010993;28;20574;-78
2022/05/27 09:22:03;;;;;;;2.25;1.83;;;;;;;16.73;62.18;96191.19;4993655;28;20191;-79
2022/05/27 09:24:46;;;;;;;3.42;2.00;;;;;;;16.57;63.68;96202.50;5009211;28;20648;-76
2022/05/27 09:27:29;;;;;;;4.45;2.20;;;;;;;16.45;63.92;96196.00;5009408;28;20592;-78
2022/05/27 09:30:02;;;;;;;4.63;1.88;;;;;;;16.48;63.20;96198.28;4977326;28;20183;-78
2022/05/27 09:32:43;;;;;;;2.40;2.20;;;;;;;16.89;61.55;96201.59;5025798;28;20541;-77
2022/05/27 09:35:15;;;;;;;3.25;2.00;;;;;;;17.06;61.81;96197.09;5010158;28;20179;-78
2022/05/27 09:37:44;;;;;;;2.60;2.20;;;;;;;17.41;59.91;96196.56;5025914;28;20199;-78
2022/05/27 09:40:19;;;;;;;3.05;1.90;;;;;;;17.62;58.58;96193.28;5011029;28;20495;-78
2022/05/27 09:42:56;;;;;;;4.25;2.10;;;;;;;18.10;56.86;96186.84;4993162;28;20628;-78
2022/05/27 09:45:21;;;;;;;2.80;1.65;;;;;;;18.47;56.02;96192.25;5030935;28;20185;-76
2022/05/27 09:47:47;;;;;;;5.38;2.00;;;;;;;18.19;56.20;96184.13;5024966;28;20183;-76
2022/05/27 09:50:35;;;;;;;2.25;1.80;;;;;;;18.66;54.83;96182.03;5025618;28;20215;-75
2022/05/27 09:53:04;;;;;;;4.35;2.80;;;;;;;18.58;55.65;96181.28;5025847;28;20159;-75
2022/05/27 09:55:40;;;;;;;2.00;1.80;;;;;;;19.02;53.84;96176.00;5042238;28;20187;-76
2022/05/27 09:58:06;;;;;;;4.82;1.83;;;;;;;19.79;51.81;96173.59;5041971;28;20256;-77
2022/05/27 10:00:41;;;;;;;2.45;1.63;;;;;;;19.49;52.21;96180.75;5034315;28;20220;-78
2022/05/27 10:03:26;;;;;;;2.28;1.75;;;;;;;19.19;52.16;96173.97;5001675;28;20186;-77
2022/05/27 10:06:06;;;;;;;1.92;1.70;;;;;;;19.28;50.56;96172.84;5017209;28;20175;-77
2022/05/27 10:08:39;;;;;;;3.15;1.70;;;;;;;19.37;51.61;96169.09;4983052;28;20794;-78
2022/05/27 10:11:13;;;;;;;4.57;1.77;;;;;;;19.29;52.22;96171.84;5032523;28;20175;-78
2022/05/27 10:13:41;;;;;;;6.20;1.70;;;;;;;19.74;51.17;96172.50;4999570;28;20762;-77
2022/05/27 10:16:21;;;;;;;4.05;1.92;;;;;;;18.77;53.78;96172.03;5032478;28;20454;-78
2022/05/27 10:18:47;;;;;;;3.63;1.70;;;;;;;18.93;53.62;96158.69;5031942;28;20185;-76
2022/05/27 10:21:16;;;;;;;3.50;1.38;;;;;;;19.18;52.63;96167.06;4999523;28;20179;-77
2022/05/27 10:23:45;;;;;;;2.83;1.50;;;;;;;19.49;51.21;96166.75;5030637;28;20194;-77
2022/05/27 10:26:21;;;;;;;4.45;1.58;;;;;;;19.25;50.36;96166.13;5031820;28;20278;-77
2022/05/27 10:29:06;;;;;;;1.75;1.50;;;;;;;19.12;51.58;96163.34;5015382;28;20186;-78
2022/05/27 10:31:31;;;;;;;3.60;1.58;;;;;;;19.39;49.81;96167.06;5031920;28;20602;-77
2022/05/27 10:33:57;;;;;;;1.50;1.40;;;;;;;19.21;50.87;96175.41;4998586;28;20175;-78
2022/05/27 10:36:46;;;;;;;3.75;1.58;;;;;;;19.48;49.68;96173.03;4982897;28;20191;-78
2022/05/27 10:39:29;;;;;;;1.95;1.70;;;;;;;19.55;49.35;96171.28;4999417;28;20266;-78
2022/05/27 10:42:23;;;;;;;2.17;1.20;;;;;;;19.55;49.96;96166.03;4999029;28;20187;-78
2022/05/27 10:45:02;;;;;;;2.35;1.50;;;;;;;19.56;49.75;96161.56;5016215;28;20274;-78
2022/05/27 10:47:57;;;;;;;2.08;1.88;;;;;;;19.85;50.81;96166.72;4998972;28;20206;-77
2022/05/27 10:50:29;;;;;;;2.05;1.90;;;;;;;19.51;49.65;96164.75;4999129;28;20223;-78
2022/05/27 10:53:17;;;;;;;2.08;1.88;;;;;;;19.25;50.07;96162.66;4999169;28;20171;-78
2022/05/27 10:56:09;;;;;;;2.85;1.90;;;;;;;18.77;52.55;96162.31;4987697;28;20197;-79
2022/05/27 11:02:23;;;;;;;1.63;1.52;;;;;;;19.31;50.92;96151.41;4952977;29;20189;-79
2022/05/27 11:05:04;;;;;;;2.30;1.80;;;;;;;19.84;49.80;96159.81;4968563;28;20272;-79
2022/05/27 11:08:00;;;;;;;2.13;1.92;;;;;;;19.46;50.34;96151.34;4969059;28;20248;-79
2022/05/27 11:10:44;;;;;;;2.35;1.70;;;;;;;19.38;50.93;96149.66;4969292;28;20576;-78
2022/05/27 11:16:56;;;;;;;3.38;1.98;;;;;;;18.67;53.18;96153.91;4966593;28;20204;-78
2022/05/27 11:19:34;;;;;;;4.57;1.60;;;;;;;18.98;52.05;96147.59;4952369;29;20196;-78
2022/05/27 11:22:13;;;;;;;3.58;1.85;;;;;;;19.24;51.05;96147.88;4969133;28;20191;-78
2022/05/27 11:24:58;;;;;;;3.15;1.98;;;;;;;19.35;50.75;96154.50;4950419;28;20694;-78
2022/05/27 11:27:54;;;;;;;1.67;1.40;;;;;;;19.34;51.22;96150.19;4968816;28;20220;-78
2022/05/27 11:30:45;;;;;;;2.58;1.77;;;;;;;19.41;50.31;96145.81;4952790;28;20212;-78
2022/05/27 11:33:35;;;;;;;2.05;1.85;;;;;;;19.27;50.87;96144.88;4947521;28;21193;-77
2022/05/27 11:36:42;;;;;;;2.00;1.88;;;;;;;19.22;51.25;96139.34;4952279;29;20177;-78
2022/05/27 11:39:28;;;;;;;2.22;1.60;;;;;;;19.11;51.25;96142.47;4927903;29;20197;-78
2022/05/27 11:42:10;;;;;;;4.13;2.00;;;;;;;19.18;51.88;96138.91;4952933;29;20278;-78
2022/05/27 11:44:48;;;;;;;5.57;1.58;;;;;;;19.23;50.67;96125.19;4936518;29;20193;-79
2022/05/27 11:47:38;;;;;;;1.60;1.50;;;;;;;19.48;51.25;96126.44;4936415;29;20329;-79
2022/05/27 11:50:19;;;;;;;3.15;1.63;;;;;;;19.65;51.19;96131.50;4952536;29;20185;-78
2022/05/27 11:53:21;;;;;;;3.65;1.63;;;;;;;19.58;52.01;96123.50;4936344;29;20623;-78
2022/05/27 11:56:09;;;;;;;2.47;1.40;;;;;;;19.58;51.70;96128.78;4951943;29;20224;-79
2022/05/27 11:58:44;;;;;;;2.92;1.33;;;;;;;19.49;52.51;96120.16;4952249;29;20177;-78
2022/05/27 12:01:28;;;;;;;2.53;1.50;;;;;;;19.44;52.63;96121.75;4936320;29;20188;-79
2022/05/27 12:04:02;;;;;;;2.53;2.15;;;;;;;19.49;52.26;96120.16;4951882;29;20270;-78
2022/05/27 12:06:40;;;;;;;1.58;1.42;;;;;;;19.20;52.61;96115.03;4952037;29;20569;-78
2022/05/27 12:09:09;;;;;;;1.85;1.45;;;;;;;19.51;51.47;96114.69;4951327;28;20331;-79
2022/05/27 12:11:40;;;;;;;1.73;1.50;;;;;;;19.87;52.19;96114.63;4951932;29;20177;-79
2022/05/27 12:14:13;;;;;;;4.38;1.90;;;;;;;19.95;50.98;96111.03;4935666;29;20191;-78
2022/05/27 12:16:42;;;;;;;1.83;1.40;;;;;;;20.05;49.93;96107.06;4989287;28;20207;-78
2022/05/27 12:19:16;;;;;;;3.40;1.52;;;;;;;20.08;49.33;96103.22;4995212;28;20664;-79
2022/05/27 12:21:45;;;;;;;3.80;1.77;;;;;;;20.11;49.75;96102.84;5026846;28;20273;-78